sensor_id;sensor_type;location;lat;lon;timestamp;temperature;humidity
5304;DHT22;2674;49.722;10.892;2023-04-03T00:01:10;2.70;1.00
5304;DHT22;2674;49.722;10.892;2023-04-03T00:03:36;2.70;1.00
5304;DHT22;2674;49.722;10.892;2023-04-03T00:06:03;2.70;1.00
5304;DHT22;2674;49.722;10.892;2023-04-03T00:08:31;2.60;1.00
5304;DHT22;2674;49.722;10.892;2023-04-03T00:10:59;2.60;1.00
5304;DHT22;2674;49.722;10.892;2023-04-03T00:13:25;2.60;1.00
5304;DHT22;2674;49.722;10.892;2023-04-03T00:15:51;2.60;1.00
5304;DHT22;2674;49.722;10.892;2023-04-03T00:18:17;2.60;1.00
5304;DHT22;2674;49.722;10.892;2023-04-03T00:20:43;2.60;1.00
5304;DHT22;2674;49.722;10.892;2023-04-03T00:23:09;2.60;1.00
5304;DHT22;2674;49.722;10.892;2023-04-03T00:25:35;2.60;1.00
5304;DHT22;2674;49.722;10.892;2023-04-03T00:28:02;2.50;1.00
5304;DHT22;2674;49.722;10.892;2023-04-03T00:30:28;2.50;1.00
5304;DHT22;2674;49.722;10.892;2023-04-03T00:32:55;2.50;1.00
5304;DHT22;2674;49.722;10.892;2023-04-03T00:35:22;2.40;1.00
5304;DHT22;2674;49.722;10.892;2023-04-03T00:37:50;2.40;1.00
5304;DHT22;2674;49.722;10.892;2023-04-03T00:40:17;2.40;1.00
5304;DHT22;2674;49.722;10.892;2023-04-03T00:42:43;2.30;1.00
5304;DHT22;2674;49.722;10.892;2023-04-03T00:45:26;2.30;1.00
5304;DHT22;2674;49.722;10.892;2023-04-03T00:47:53;2.30;1.00
5304;DHT22;2674;49.722;10.892;2023-04-03T00:50:19;2.30;1.00
5304;DHT22;2674;49.722;10.892;2023-04-03T00:52:46;2.30;1.00
5304;DHT22;2674;49.722;10.892;2023-04-03T00:55:14;2.30;1.00
5304;DHT22;2674;49.722;10.892;2023-04-03T00:57:40;2.30;1.00
5304;DHT22;2674;49.722;10.892;2023-04-03T01:00:12;2.30;1.00
5304;DHT22;2674;49.722;10.892;2023-04-03T01:02:39;2.20;1.00
5304;DHT22;2674;49.722;10.892;2023-04-03T01:05:06;2.20;1.00
5304;DHT22;2674;49.722;10.892;2023-04-03T01:07:33;2.20;1.00
5304;DHT22;2674;49.722;10.892;2023-04-03T01:10:06;2.30;1.00
5304;DHT22;2674;49.722;10.892;2023-04-03T01:12:37;2.20;1.00
5304;DHT22;2674;49.722;10.892;2023-04-03T01:15:10;2.20;1.00
5304;DHT22;2674;49.722;10.892;2023-04-03T01:17:41;2.20;1.00
5304;DHT22;2674;49.722;10.892;2023-04-03T01:28:10;2.00;11.20
5304;DHT22;2674;49.722;10.892;2023-04-03T01:33:26;2.10;19.10
5304;DHT22;2674;49.722;10.892;2023-04-03T01:35:52;2.10;18.80
5304;DHT22;2674;49.722;10.892;2023-04-03T01:38:18;2.10;19.20
5304;DHT22;2674;49.722;10.892;2023-04-03T01:40:44;2.10;13.60
5304;DHT22;2674;49.722;10.892;2023-04-03T01:43:10;2.10;17.20
5304;DHT22;2674;49.722;10.892;2023-04-03T01:45:36;2.10;23.60
5304;DHT22;2674;49.722;10.892;2023-04-03T01:48:02;2.10;20.00
5304;DHT22;2674;49.722;10.892;2023-04-03T01:50:28;2.10;20.30
5304;DHT22;2674;49.722;10.892;2023-04-03T01:52:53;2.10;28.20
5304;DHT22;2674;49.722;10.892;2023-04-03T01:55:19;2.20;30.80
5304;DHT22;2674;49.722;10.892;2023-04-03T01:57:45;2.20;25.30
5304;DHT22;2674;49.722;10.892;2023-04-03T02:00:11;2.20;23.40
5304;DHT22;2674;49.722;10.892;2023-04-03T02:02:38;2.20;24.30
5304;DHT22;2674;49.722;10.892;2023-04-03T02:05:04;2.30;27.20
5304;DHT22;2674;49.722;10.892;2023-04-03T02:07:29;2.30;27.70
5304;DHT22;2674;49.722;10.892;2023-04-03T02:09:55;2.30;24.10
5304;DHT22;2674;49.722;10.892;2023-04-03T02:12:21;2.30;23.70
5304;DHT22;2674;49.722;10.892;2023-04-03T02:14:47;2.30;27.70
5304;DHT22;2674;49.722;10.892;2023-04-03T02:17:13;2.30;20.70
5304;DHT22;2674;49.722;10.892;2023-04-03T02:19:38;2.20;28.20
5304;DHT22;2674;49.722;10.892;2023-04-03T02:22:05;2.20;36.70
5304;DHT22;2674;49.722;10.892;2023-04-03T02:24:31;2.20;43.40
5304;DHT22;2674;49.722;10.892;2023-04-03T02:26:57;2.30;34.60
5304;DHT22;2674;49.722;10.892;2023-04-03T02:29:23;2.30;34.60
5304;DHT22;2674;49.722;10.892;2023-04-03T02:31:49;2.30;35.50
5304;DHT22;2674;49.722;10.892;2023-04-03T02:34:16;2.30;34.70
5304;DHT22;2674;49.722;10.892;2023-04-03T02:36:42;2.30;44.50
5304;DHT22;2674;49.722;10.892;2023-04-03T02:39:08;2.30;43.30
5304;DHT22;2674;49.722;10.892;2023-04-03T02:41:34;2.40;40.70
5304;DHT22;2674;49.722;10.892;2023-04-03T02:44:05;2.40;39.80
5304;DHT22;2674;49.722;10.892;2023-04-03T02:46:32;2.40;45.30
5304;DHT22;2674;49.722;10.892;2023-04-03T02:48:58;2.40;46.50
5304;DHT22;2674;49.722;10.892;2023-04-03T02:51:24;2.40;45.10
5304;DHT22;2674;49.722;10.892;2023-04-03T02:53:50;2.40;42.10
5304;DHT22;2674;49.722;10.892;2023-04-03T02:56:16;2.40;47.50
5304;DHT22;2674;49.722;10.892;2023-04-03T02:58:44;2.30;50.20
5304;DHT22;2674;49.722;10.892;2023-04-03T03:01:10;2.30;49.10
5304;DHT22;2674;49.722;10.892;2023-04-03T03:03:36;2.30;46.40
5304;DHT22;2674;49.722;10.892;2023-04-03T03:06:08;2.40;45.00
5304;DHT22;2674;49.722;10.892;2023-04-03T03:08:34;2.40;48.70
5304;DHT22;2674;49.722;10.892;2023-04-03T03:11:01;2.40;47.10
5304;DHT22;2674;49.722;10.892;2023-04-03T03:13:27;2.40;53.70
5304;DHT22;2674;49.722;10.892;2023-04-03T03:15:53;2.30;66.70
5304;DHT22;2674;49.722;10.892;2023-04-03T03:18:19;2.40;62.80
5304;DHT22;2674;49.722;10.892;2023-04-03T03:20:45;2.40;58.40
5304;DHT22;2674;49.722;10.892;2023-04-03T03:23:11;2.40;48.30
5304;DHT22;2674;49.722;10.892;2023-04-03T03:25:40;2.50;46.30
5304;DHT22;2674;49.722;10.892;2023-04-03T03:28:06;2.40;51.40
5304;DHT22;2674;49.722;10.892;2023-04-03T03:30:32;2.50;50.20
5304;DHT22;2674;49.722;10.892;2023-04-03T03:32:58;2.40;46.70
5304;DHT22;2674;49.722;10.892;2023-04-03T03:35:24;2.40;55.70
5304;DHT22;2674;49.722;10.892;2023-04-03T03:37:50;2.40;57.30
5304;DHT22;2674;49.722;10.892;2023-04-03T03:40:17;2.40;56.40
5304;DHT22;2674;49.722;10.892;2023-04-03T03:42:43;2.40;64.10
5304;DHT22;2674;49.722;10.892;2023-04-03T03:45:09;2.40;62.40
5304;DHT22;2674;49.722;10.892;2023-04-03T03:47:35;2.40;71.80
5304;DHT22;2674;49.722;10.892;2023-04-03T03:50:01;2.40;66.40
5304;DHT22;2674;49.722;10.892;2023-04-03T03:52:27;2.30;68.60
5304;DHT22;2674;49.722;10.892;2023-04-03T03:54:53;2.30;70.20
5304;DHT22;2674;49.722;10.892;2023-04-03T03:57:19;2.30;71.40
5304;DHT22;2674;49.722;10.892;2023-04-03T03:59:45;2.30;73.40
5304;DHT22;2674;49.722;10.892;2023-04-03T04:02:11;2.30;71.00
5304;DHT22;2674;49.722;10.892;2023-04-03T04:04:37;2.30;69.30
5304;DHT22;2674;49.722;10.892;2023-04-03T04:07:03;2.20;78.70
5304;DHT22;2674;49.722;10.892;2023-04-03T04:09:29;2.20;77.30
5304;DHT22;2674;49.722;10.892;2023-04-03T04:11:55;2.20;74.60
5304;DHT22;2674;49.722;10.892;2023-04-03T04:14:21;2.10;84.30
5304;DHT22;2674;49.722;10.892;2023-04-03T04:16:47;2.00;85.80
5304;DHT22;2674;49.722;10.892;2023-04-03T04:19:13;2.00;83.10
5304;DHT22;2674;49.722;10.892;2023-04-03T04:21:40;1.90;91.90
5304;DHT22;2674;49.722;10.892;2023-04-03T04:24:07;1.90;90.60
5304;DHT22;2674;49.722;10.892;2023-04-03T04:26:34;1.80;92.20
5304;DHT22;2674;49.722;10.892;2023-04-03T04:29:00;1.80;90.70
5304;DHT22;2674;49.722;10.892;2023-04-03T04:31:26;1.80;90.20
5304;DHT22;2674;49.722;10.892;2023-04-03T04:33:52;1.70;93.30
5304;DHT22;2674;49.722;10.892;2023-04-03T04:36:18;1.70;96.30
5304;DHT22;2674;49.722;10.892;2023-04-03T04:38:44;1.60;98.60
5304;DHT22;2674;49.722;10.892;2023-04-03T04:41:10;1.60;99.40
5304;DHT22;2674;49.722;10.892;2023-04-03T04:43:36;1.60;99.90
5304;DHT22;2674;49.722;10.892;2023-04-03T04:46:03;1.60;99.90
5304;DHT22;2674;49.722;10.892;2023-04-03T04:48:30;1.50;99.90
5304;DHT22;2674;49.722;10.892;2023-04-03T04:50:55;1.50;99.90
5304;DHT22;2674;49.722;10.892;2023-04-03T04:53:21;1.50;99.90
5304;DHT22;2674;49.722;10.892;2023-04-03T04:55:47;1.40;99.90
5304;DHT22;2674;49.722;10.892;2023-04-03T04:58:13;1.50;99.90
5304;DHT22;2674;49.722;10.892;2023-04-03T05:00:39;1.40;99.90
5304;DHT22;2674;49.722;10.892;2023-04-03T05:03:05;1.40;99.90
5304;DHT22;2674;49.722;10.892;2023-04-03T05:05:31;1.40;99.90
5304;DHT22;2674;49.722;10.892;2023-04-03T05:07:57;1.40;99.90
5304;DHT22;2674;49.722;10.892;2023-04-03T05:10:23;1.40;99.90
5304;DHT22;2674;49.722;10.892;2023-04-03T05:12:48;1.40;99.90
5304;DHT22;2674;49.722;10.892;2023-04-03T05:15:16;1.40;99.90
5304;DHT22;2674;49.722;10.892;2023-04-03T05:17:42;1.40;99.90
5304;DHT22;2674;49.722;10.892;2023-04-03T05:20:08;1.40;99.90
5304;DHT22;2674;49.722;10.892;2023-04-03T05:22:34;1.40;99.90
5304;DHT22;2674;49.722;10.892;2023-04-03T05:25:00;1.40;99.90
5304;DHT22;2674;49.722;10.892;2023-04-03T05:27:26;1.40;99.90
5304;DHT22;2674;49.722;10.892;2023-04-03T05:29:54;1.40;99.90
5304;DHT22;2674;49.722;10.892;2023-04-03T05:32:20;1.40;99.90
5304;DHT22;2674;49.722;10.892;2023-04-03T05:34:49;1.40;99.90
5304;DHT22;2674;49.722;10.892;2023-04-03T05:37:14;1.40;99.90
5304;DHT22;2674;49.722;10.892;2023-04-03T05:39:40;1.40;99.60
5304;DHT22;2674;49.722;10.892;2023-04-03T05:42:07;1.40;98.40
5304;DHT22;2674;49.722;10.892;2023-04-03T05:44:33;1.40;99.90
5304;DHT22;2674;49.722;10.892;2023-04-03T05:46:59;1.40;97.30
5304;DHT22;2674;49.722;10.892;2023-04-03T05:49:25;1.50;98.10
5304;DHT22;2674;49.722;10.892;2023-04-03T05:51:54;1.50;97.30
5304;DHT22;2674;49.722;10.892;2023-04-03T05:54:23;1.50;97.80
5304;DHT22;2674;49.722;10.892;2023-04-03T05:56:50;1.50;96.50
5304;DHT22;2674;49.722;10.892;2023-04-03T05:59:17;1.60;92.40
5304;DHT22;2674;49.722;10.892;2023-04-03T06:01:43;1.70;88.80
5304;DHT22;2674;49.722;10.892;2023-04-03T06:04:10;1.70;87.10
5304;DHT22;2674;49.722;10.892;2023-04-03T06:06:47;1.70;84.50
5304;DHT22;2674;49.722;10.892;2023-04-03T06:09:14;1.70;88.80
5304;DHT22;2674;49.722;10.892;2023-04-03T06:11:41;1.80;81.50
5304;DHT22;2674;49.722;10.892;2023-04-03T06:14:07;1.80;77.90
5304;DHT22;2674;49.722;10.892;2023-04-03T06:16:34;1.90;70.50
5304;DHT22;2674;49.722;10.892;2023-04-03T06:19:00;1.90;61.00
5304;DHT22;2674;49.722;10.892;2023-04-03T06:21:26;1.90;58.00
5304;DHT22;2674;49.722;10.892;2023-04-03T06:23:52;1.90;61.50
5304;DHT22;2674;49.722;10.892;2023-04-03T06:26:17;1.90;58.10
5304;DHT22;2674;49.722;10.892;2023-04-03T06:28:43;2.00;56.20
5304;DHT22;2674;49.722;10.892;2023-04-03T06:31:09;2.10;56.70
5304;DHT22;2674;49.722;10.892;2023-04-03T06:33:35;2.10;50.20
5304;DHT22;2674;49.722;10.892;2023-04-03T06:36:04;2.20;36.90
5304;DHT22;2674;49.722;10.892;2023-04-03T06:38:31;2.30;26.60
5304;DHT22;2674;49.722;10.892;2023-04-03T06:40:57;2.40;18.40
5304;DHT22;2674;49.722;10.892;2023-04-03T06:43:22;2.40;16.40
5304;DHT22;2674;49.722;10.892;2023-04-03T06:45:49;2.50;9.40
5304;DHT22;2674;49.722;10.892;2023-04-03T06:48:16;2.50;1.00
5304;DHT22;2674;49.722;10.892;2023-04-03T06:50:42;2.50;1.00
5304;DHT22;2674;49.722;10.892;2023-04-03T06:53:08;2.50;1.00
5304;DHT22;2674;49.722;10.892;2023-04-03T06:55:34;2.50;1.00
5304;DHT22;2674;49.722;10.892;2023-04-03T06:57:59;2.60;1.00
5304;DHT22;2674;49.722;10.892;2023-04-03T07:00:26;2.50;1.00
5304;DHT22;2674;49.722;10.892;2023-04-03T07:02:52;2.50;1.00
5304;DHT22;2674;49.722;10.892;2023-04-03T07:05:18;2.60;1.00
5304;DHT22;2674;49.722;10.892;2023-04-03T07:07:44;2.60;1.00
5304;DHT22;2674;49.722;10.892;2023-04-03T07:10:10;2.70;1.00
5304;DHT22;2674;49.722;10.892;2023-04-03T07:12:37;2.70;1.00
5304;DHT22;2674;49.722;10.892;2023-04-03T07:15:05;2.80;1.00
5304;DHT22;2674;49.722;10.892;2023-04-03T07:17:31;2.80;1.00
5304;DHT22;2674;49.722;10.892;2023-04-03T07:19:57;2.80;1.00
5304;DHT22;2674;49.722;10.892;2023-04-03T07:22:23;2.90;3.60
5304;DHT22;2674;49.722;10.892;2023-04-03T07:24:49;3.00;1.00
5304;DHT22;2674;49.722;10.892;2023-04-03T07:27:14;3.20;1.00
5304;DHT22;2674;49.722;10.892;2023-04-03T07:29:40;3.10;1.00
5304;DHT22;2674;49.722;10.892;2023-04-03T07:32:06;3.00;1.00
5304;DHT22;2674;49.722;10.892;2023-04-03T07:34:32;3.00;1.00
5304;DHT22;2674;49.722;10.892;2023-04-03T07:36:58;2.90;1.00
5304;DHT22;2674;49.722;10.892;2023-04-03T07:39:25;3.00;1.00
5304;DHT22;2674;49.722;10.892;2023-04-03T07:41:51;3.00;1.00
5304;DHT22;2674;49.722;10.892;2023-04-03T07:44:17;3.20;1.00
5304;DHT22;2674;49.722;10.892;2023-04-03T07:46:43;3.30;1.00
5304;DHT22;2674;49.722;10.892;2023-04-03T07:49:09;3.30;1.00
5304;DHT22;2674;49.722;10.892;2023-04-03T07:51:35;3.30;1.00
5304;DHT22;2674;49.722;10.892;2023-04-03T07:54:01;3.30;1.00
5304;DHT22;2674;49.722;10.892;2023-04-03T07:56:27;3.30;1.00
5304;DHT22;2674;49.722;10.892;2023-04-03T07:58:53;3.40;1.00
5304;DHT22;2674;49.722;10.892;2023-04-03T08:01:19;3.20;1.00
5304;DHT22;2674;49.722;10.892;2023-04-03T08:03:53;3.20;1.00
5304;DHT22;2674;49.722;10.892;2023-04-03T08:06:19;3.30;1.00
5304;DHT22;2674;49.722;10.892;2023-04-03T08:08:45;3.30;1.00
5304;DHT22;2674;49.722;10.892;2023-04-03T08:11:11;3.30;1.00
5304;DHT22;2674;49.722;10.892;2023-04-03T08:13:37;3.40;1.00
5304;DHT22;2674;49.722;10.892;2023-04-03T08:16:17;3.60;1.00
5304;DHT22;2674;49.722;10.892;2023-04-03T08:18:43;3.60;1.00
5304;DHT22;2674;49.722;10.892;2023-04-03T08:21:10;3.40;1.00
5304;DHT22;2674;49.722;10.892;2023-04-03T08:23:37;3.40;1.00
5304;DHT22;2674;49.722;10.892;2023-04-03T08:26:13;3.50;1.00
5304;DHT22;2674;49.722;10.892;2023-04-03T08:28:40;3.60;1.00
5304;DHT22;2674;49.722;10.892;2023-04-03T08:31:09;3.70;1.00
5304;DHT22;2674;49.722;10.892;2023-04-03T08:33:36;3.60;1.00
5304;DHT22;2674;49.722;10.892;2023-04-03T08:36:07;3.70;1.00
5304;DHT22;2674;49.722;10.892;2023-04-03T08:38:40;3.50;1.00
5304;DHT22;2674;49.722;10.892;2023-04-03T08:44:04;3.40;1.00
5304;DHT22;2674;49.722;10.892;2023-04-03T08:46:52;3.30;1.00
5304;DHT22;2674;49.722;10.892;2023-04-03T08:49:33;3.10;1.00
5304;DHT22;2674;49.722;10.892;2023-04-03T08:52:05;3.10;1.00
5304;DHT22;2674;49.722;10.892;2023-04-03T08:54:51;3.10;1.00
5304;DHT22;2674;49.722;10.892;2023-04-03T08:59:59;3.40;1.00
5304;DHT22;2674;49.722;10.892;2023-04-03T09:02:42;3.70;1.00
5304;DHT22;2674;49.722;10.892;2023-04-03T09:05:16;3.70;1.00
5304;DHT22;2674;49.722;10.892;2023-04-03T09:07:49;3.80;1.00
5304;DHT22;2674;49.722;10.892;2023-04-03T09:10:28;3.90;1.00
5304;DHT22;2674;49.722;10.892;2023-04-03T09:15:47;4.10;1.00
5304;DHT22;2674;49.722;10.892;2023-04-03T09:18:15;4.40;1.00
5304;DHT22;2674;49.722;10.892;2023-04-03T09:20:46;4.80;1.00
5304;DHT22;2674;49.722;10.892;2023-04-03T09:25:45;4.80;1.00
5304;DHT22;2674;49.722;10.892;2023-04-03T09:28:11;4.90;1.00
5304;DHT22;2674;49.722;10.892;2023-04-03T09:30:37;5.00;1.00
5304;DHT22;2674;49.722;10.892;2023-04-03T09:33:04;5.10;1.00
5304;DHT22;2674;49.722;10.892;2023-04-03T09:35:33;5.10;1.00
5304;DHT22;2674;49.722;10.892;2023-04-03T09:38:14;4.90;1.00
5304;DHT22;2674;49.722;10.892;2023-04-03T09:40:42;4.70;1.00
5304;DHT22;2674;49.722;10.892;2023-04-03T09:43:51;4.40;1.00
5304;DHT22;2674;49.722;10.892;2023-04-03T09:46:36;4.20;1.00
5304;DHT22;2674;49.722;10.892;2023-04-03T09:49:04;4.00;1.00
5304;DHT22;2674;49.722;10.892;2023-04-03T09:51:31;4.20;1.00
5304;DHT22;2674;49.722;10.892;2023-04-03T09:53:58;4.10;1.00
5304;DHT22;2674;49.722;10.892;2023-04-03T09:56:29;4.20;1.00
5304;DHT22;2674;49.722;10.892;2023-04-03T10:01:33;4.20;1.00
5304;DHT22;2674;49.722;10.892;2023-04-03T10:04:17;4.30;1.00
5304;DHT22;2674;49.722;10.892;2023-04-03T10:06:49;4.50;1.00
5304;DHT22;2674;49.722;10.892;2023-04-03T10:09:27;4.60;1.00
5304;DHT22;2674;49.722;10.892;2023-04-03T10:12:20;4.80;1.00
5304;DHT22;2674;49.722;10.892;2023-04-03T10:17:21;5.10;1.00
5304;DHT22;2674;49.722;10.892;2023-04-03T10:20:06;5.20;1.00
5304;DHT22;2674;49.722;10.892;2023-04-03T10:26:01;5.50;1.00
5304;DHT22;2674;49.722;10.892;2023-04-03T10:34:46;5.10;1.00
5304;DHT22;2674;49.722;10.892;2023-04-03T10:37:48;5.00;1.00
5304;DHT22;2674;49.722;10.892;2023-04-03T10:40:27;5.20;1.00
5304;DHT22;2674;49.722;10.892;2023-04-03T10:51:57;5.70;1.00
5304;DHT22;2674;49.722;10.892;2023-04-03T10:57:23;6.00;1.00
5304;DHT22;2674;49.722;10.892;2023-04-03T10:59:58;5.90;1.00
5304;DHT22;2674;49.722;10.892;2023-04-03T11:02:32;6.00;1.00
5304;DHT22;2674;49.722;10.892;2023-04-03T11:05:48;6.20;1.00
5304;DHT22;2674;49.722;10.892;2023-04-03T11:08:44;6.20;1.00
5304;DHT22;2674;49.722;10.892;2023-04-03T11:11:27;6.00;1.00
5304;DHT22;2674;49.722;10.892;2023-04-03T11:14:35;5.90;1.00
5304;DHT22;2674;49.722;10.892;2023-04-03T11:25:44;5.60;1.00
5304;DHT22;2674;49.722;10.892;2023-04-03T11:28:15;5.70;1.00
5304;DHT22;2674;49.722;10.892;2023-04-03T11:33:55;5.70;1.00
5304;DHT22;2674;49.722;10.892;2023-04-03T11:36:50;5.80;1.00
5304;DHT22;2674;49.722;10.892;2023-04-03T11:39:32;6.10;1.00
5304;DHT22;2674;49.722;10.892;2023-04-03T11:54:47;6.30;1.00
5304;DHT22;2674;49.722;10.892;2023-04-03T11:58:02;6.10;1.00
5304;DHT22;2674;49.722;10.892;2023-04-03T12:00:48;5.90;1.00
5304;DHT22;2674;49.722;10.892;2023-04-03T12:03:57;6.00;1.00
5304;DHT22;2674;49.722;10.892;2023-04-03T12:08:54;6.40;1.00
5304;DHT22;2674;49.722;10.892;2023-04-03T12:11:40;6.50;1.00
5304;DHT22;2674;49.722;10.892;2023-04-03T12:14:20;6.50;1.00
5304;DHT22;2674;49.722;10.892;2023-04-03T12:16:49;6.20;1.00
5304;DHT22;2674;49.722;10.892;2023-04-03T12:19:35;6.00;1.00
5304;DHT22;2674;49.722;10.892;2023-04-03T12:24:48;6.20;1.00
5304;DHT22;2674;49.722;10.892;2023-04-03T12:27:40;6.30;1.00
5304;DHT22;2674;49.722;10.892;2023-04-03T12:30:31;6.40;1.00
5304;DHT22;2674;49.722;10.892;2023-04-03T12:33:20;6.40;1.00
5304;DHT22;2674;49.722;10.892;2023-04-03T12:36:13;6.70;1.00
5304;DHT22;2674;49.722;10.892;2023-04-03T12:48:00;6.60;1.00
5304;DHT22;2674;49.722;10.892;2023-04-03T12:50:34;6.70;1.00
5304;DHT22;2674;49.722;10.892;2023-04-03T12:53:10;6.70;1.00
5304;DHT22;2674;49.722;10.892;2023-04-03T12:55:40;6.70;1.00
5304;DHT22;2674;49.722;10.892;2023-04-03T12:58:26;6.70;1.00
5304;DHT22;2674;49.722;10.892;2023-04-03T13:01:11;6.60;1.00
5304;DHT22;2674;49.722;10.892;2023-04-03T13:03:43;6.50;1.00
5304;DHT22;2674;49.722;10.892;2023-04-03T13:06:44;6.50;1.00
5304;DHT22;2674;49.722;10.892;2023-04-03T13:09:21;6.60;1.00
5304;DHT22;2674;49.722;10.892;2023-04-03T13:11:51;7.00;1.00
5304;DHT22;2674;49.722;10.892;2023-04-03T13:14:29;7.10;1.00
5304;DHT22;2674;49.722;10.892;2023-04-03T13:17:22;7.10;1.00
5304;DHT22;2674;49.722;10.892;2023-04-03T13:20:12;7.20;1.00
5304;DHT22;2674;49.722;10.892;2023-04-03T13:23:01;7.10;1.00
5304;DHT22;2674;49.722;10.892;2023-04-03T13:25:34;6.80;1.00
5304;DHT22;2674;49.722;10.892;2023-04-03T13:28:07;6.60;1.00
5304;DHT22;2674;49.722;10.892;2023-04-03T13:30:35;6.40;1.00
5304;DHT22;2674;49.722;10.892;2023-04-03T13:33:25;6.70;1.00
5304;DHT22;2674;49.722;10.892;2023-04-03T13:36:08;7.00;1.00
5304;DHT22;2674;49.722;10.892;2023-04-03T13:38:41;7.10;1.00
5304;DHT22;2674;49.722;10.892;2023-04-03T13:41:47;7.30;1.00
5304;DHT22;2674;49.722;10.892;2023-04-03T13:46:53;7.60;1.00
5304;DHT22;2674;49.722;10.892;2023-04-03T13:49:38;7.80;1.00
5304;DHT22;2674;49.722;10.892;2023-04-03T13:52:31;7.90;1.00
5304;DHT22;2674;49.722;10.892;2023-04-03T13:55:24;7.90;1.00
5304;DHT22;2674;49.722;10.892;2023-04-03T13:58:02;8.00;1.00
5304;DHT22;2674;49.722;10.892;2023-04-03T14:00:49;7.90;1.00
5304;DHT22;2674;49.722;10.892;2023-04-03T14:03:33;7.70;1.00
5304;DHT22;2674;49.722;10.892;2023-04-03T14:06:00;7.70;1.00
5304;DHT22;2674;49.722;10.892;2023-04-03T14:08:35;7.50;1.00
5304;DHT22;2674;49.722;10.892;2023-04-03T14:11:05;7.30;1.00
5304;DHT22;2674;49.722;10.892;2023-04-03T14:13:37;7.40;1.00
5304;DHT22;2674;49.722;10.892;2023-04-03T14:16:39;7.50;1.00
5304;DHT22;2674;49.722;10.892;2023-04-03T14:22:24;7.40;1.00
5304;DHT22;2674;49.722;10.892;2023-04-03T14:24:55;7.50;1.00
5304;DHT22;2674;49.722;10.892;2023-04-03T14:27:29;7.60;1.00
5304;DHT22;2674;49.722;10.892;2023-04-03T14:30:01;7.80;1.00
5304;DHT22;2674;49.722;10.892;2023-04-03T14:32:35;7.80;1.00
5304;DHT22;2674;49.722;10.892;2023-04-03T14:35:31;7.70;1.00
5304;DHT22;2674;49.722;10.892;2023-04-03T14:38:29;7.70;1.00
5304;DHT22;2674;49.722;10.892;2023-04-03T14:40:58;7.40;1.00
5304;DHT22;2674;49.722;10.892;2023-04-03T14:43:24;7.20;1.00
5304;DHT22;2674;49.722;10.892;2023-04-03T14:45:58;7.40;1.00
5304;DHT22;2674;49.722;10.892;2023-04-03T14:48:28;7.40;1.00
5304;DHT22;2674;49.722;10.892;2023-04-03T14:51:01;7.40;1.00
5304;DHT22;2674;49.722;10.892;2023-04-03T14:53:36;7.30;1.00
5304;DHT22;2674;49.722;10.892;2023-04-03T14:56:11;7.40;1.00
5304;DHT22;2674;49.722;10.892;2023-04-03T14:58:44;7.10;1.00
5304;DHT22;2674;49.722;10.892;2023-04-03T15:01:17;7.10;1.00
5304;DHT22;2674;49.722;10.892;2023-04-03T15:03:55;7.10;1.00
5304;DHT22;2674;49.722;10.892;2023-04-03T15:06:33;7.10;1.00
5304;DHT22;2674;49.722;10.892;2023-04-03T15:09:04;7.10;1.00
5304;DHT22;2674;49.722;10.892;2023-04-03T15:11:31;7.30;1.00
5304;DHT22;2674;49.722;10.892;2023-04-03T15:14:01;7.40;1.00
5304;DHT22;2674;49.722;10.892;2023-04-03T15:16:32;7.50;1.00
5304;DHT22;2674;49.722;10.892;2023-04-03T15:19:07;7.60;1.00
5304;DHT22;2674;49.722;10.892;2023-04-03T15:21:46;7.70;1.00
5304;DHT22;2674;49.722;10.892;2023-04-03T15:24:16;7.30;1.00
5304;DHT22;2674;49.722;10.892;2023-04-03T15:26:48;7.10;1.00
5304;DHT22;2674;49.722;10.892;2023-04-03T15:31:55;6.90;1.00
5304;DHT22;2674;49.722;10.892;2023-04-03T15:34:46;6.90;1.00
5304;DHT22;2674;49.722;10.892;2023-04-03T15:37:25;7.20;1.00
5304;DHT22;2674;49.722;10.892;2023-04-03T15:39:54;7.10;1.00
5304;DHT22;2674;49.722;10.892;2023-04-03T15:42:35;7.00;1.00
5304;DHT22;2674;49.722;10.892;2023-04-03T15:45:10;6.90;1.00
5304;DHT22;2674;49.722;10.892;2023-04-03T15:47:49;6.60;1.00
5304;DHT22;2674;49.722;10.892;2023-04-03T15:50:16;6.20;1.00
5304;DHT22;2674;49.722;10.892;2023-04-03T15:52:43;6.20;1.00
5304;DHT22;2674;49.722;10.892;2023-04-03T15:55:16;6.30;1.00
5304;DHT22;2674;49.722;10.892;2023-04-03T15:57:48;6.50;1.00
5304;DHT22;2674;49.722;10.892;2023-04-03T16:00:18;6.30;1.00
5304;DHT22;2674;49.722;10.892;2023-04-03T16:02:48;6.30;1.00
5304;DHT22;2674;49.722;10.892;2023-04-03T16:05:24;6.50;1.00
5304;DHT22;2674;49.722;10.892;2023-04-03T16:07:55;6.60;1.00
5304;DHT22;2674;49.722;10.892;2023-04-03T16:10:39;6.60;1.00
5304;DHT22;2674;49.722;10.892;2023-04-03T16:13:21;6.60;1.00
5304;DHT22;2674;49.722;10.892;2023-04-03T16:15:50;6.50;1.00
5304;DHT22;2674;49.722;10.892;2023-04-03T16:18:23;6.50;1.00
5304;DHT22;2674;49.722;10.892;2023-04-03T16:21:07;6.40;1.00
5304;DHT22;2674;49.722;10.892;2023-04-03T16:23:38;6.30;1.00
5304;DHT22;2674;49.722;10.892;2023-04-03T16:28:54;5.90;1.00
5304;DHT22;2674;49.722;10.892;2023-04-03T16:31:23;5.70;1.00
5304;DHT22;2674;49.722;10.892;2023-04-03T16:33:55;5.70;1.00
5304;DHT22;2674;49.722;10.892;2023-04-03T16:36:31;5.60;1.00
5304;DHT22;2674;49.722;10.892;2023-04-03T16:38:59;5.50;1.00
5304;DHT22;2674;49.722;10.892;2023-04-03T16:41:36;5.60;1.00
5304;DHT22;2674;49.722;10.892;2023-04-03T16:44:16;5.50;1.00
5304;DHT22;2674;49.722;10.892;2023-04-03T16:46:45;5.50;1.00
5304;DHT22;2674;49.722;10.892;2023-04-03T16:49:18;5.50;1.00
5304;DHT22;2674;49.722;10.892;2023-04-03T16:51:45;5.50;1.00
5304;DHT22;2674;49.722;10.892;2023-04-03T16:54:15;5.50;1.00
5304;DHT22;2674;49.722;10.892;2023-04-03T16:56:43;5.40;1.00
5304;DHT22;2674;49.722;10.892;2023-04-03T16:59:13;5.50;1.00
5304;DHT22;2674;49.722;10.892;2023-04-03T17:01:47;5.30;1.00
5304;DHT22;2674;49.722;10.892;2023-04-03T17:04:20;5.20;1.00
5304;DHT22;2674;49.722;10.892;2023-04-03T17:06:46;5.20;1.00
5304;DHT22;2674;49.722;10.892;2023-04-03T17:09:17;5.00;1.00
5304;DHT22;2674;49.722;10.892;2023-04-03T17:11:47;5.00;1.00
5304;DHT22;2674;49.722;10.892;2023-04-03T17:14:20;5.00;1.00
5304;DHT22;2674;49.722;10.892;2023-04-03T17:16:46;4.80;1.00
5304;DHT22;2674;49.722;10.892;2023-04-03T17:19:13;4.70;1.00
5304;DHT22;2674;49.722;10.892;2023-04-03T17:21:59;4.70;1.00
5304;DHT22;2674;49.722;10.892;2023-04-03T17:24:28;4.50;1.00
5304;DHT22;2674;49.722;10.892;2023-04-03T17:26:59;4.50;1.00
5304;DHT22;2674;49.722;10.892;2023-04-03T17:29:27;4.50;1.00
5304;DHT22;2674;49.722;10.892;2023-04-03T17:31:57;4.50;1.00
5304;DHT22;2674;49.722;10.892;2023-04-03T17:34:23;4.40;1.00
5304;DHT22;2674;49.722;10.892;2023-04-03T17:36:50;4.10;1.00
5304;DHT22;2674;49.722;10.892;2023-04-03T17:39:16;4.00;1.00
5304;DHT22;2674;49.722;10.892;2023-04-03T17:41:44;3.80;1.00
5304;DHT22;2674;49.722;10.892;2023-04-03T17:47:09;3.70;1.00
5304;DHT22;2674;49.722;10.892;2023-04-03T17:49:40;3.60;1.00
5304;DHT22;2674;49.722;10.892;2023-04-03T17:52:10;3.50;1.00
5304;DHT22;2674;49.722;10.892;2023-04-03T17:54:39;3.50;1.00
5304;DHT22;2674;49.722;10.892;2023-04-03T17:57:08;3.40;1.00
5304;DHT22;2674;49.722;10.892;2023-04-03T17:59:39;3.40;1.00
5304;DHT22;2674;49.722;10.892;2023-04-03T18:02:12;3.30;1.00
5304;DHT22;2674;49.722;10.892;2023-04-03T18:04:41;3.30;1.00
5304;DHT22;2674;49.722;10.892;2023-04-03T18:07:09;3.20;1.00
5304;DHT22;2674;49.722;10.892;2023-04-03T18:09:40;3.20;1.00
5304;DHT22;2674;49.722;10.892;2023-04-03T18:12:13;3.10;1.00
5304;DHT22;2674;49.722;10.892;2023-04-03T18:14:41;3.10;1.00
5304;DHT22;2674;49.722;10.892;2023-04-03T18:17:20;3.00;1.00
5304;DHT22;2674;49.722;10.892;2023-04-03T18:20:02;2.90;1.00